PAJNPASI

Guest
Details From PAJN - Juneau Intl
To PASI - SITKA ROCKY GUTIERREZ
Flight Number -
Tags decoded
Created
Modified
Stats Distance 117 nm / 216 km
Max Altitude 0 ft / 0 m
Waypoints 4
Social Downloads 0
Likes 0
Share VATSIM

Download

Looking for another format? Having issues loading an existing format? Contact us
Advertisement - Login to hide

Notes

Requested: PAJN SSR BKA PASI

Route

PAJN SSR BKA PASI

ID Type Via Altitude Latitude Longitude Leg Dist Tot Dist Heading (true) Name
O PAJN APT - 0 ft / 0 m 58.35496˚ -134.57628˚ - 0 nm - Juneau Intl
SSR VOR - 0 ft / 0 m 58.17767˚ -135.25886˚ 24 nm 24 nm 244° / 243° SISTERS ISLAND VORTAC
BKA VOR - 0 ft / 0 m 56.85942˚ -135.55131˚ 79 nm 103 nm 187° / 187° BIORKA ISLAND VORTAC
O PASI APT - 0 ft / 0 m 57.04713˚ -135.36160˚ 12 nm 116 nm 29° / 29° SITKA ROCKY GUTIERREZ

Altitude Profile

Advertisement - Login to hide

PAJN

Details ICAO PAJN (JNU)
Name Juneau Intl
Region USA (Alaska)
Timezone America/Juneau (UTC-8.0)
Stats Elevation 21 ft / 6 m (AMSL)
Location 58.354964° -134.576278°
Runways 1
Magnetic Variation 19.018° E

METAR

PAJN 262153Z 12018G25KT 10SM -RA FEW011 BKN047 OVC085 08/06 A2967

Decode

TAF

PAJN 261739Z 2618/2718 12015KT P6SM -RA SCT010 BKN045 OVC060 FM270900 11013KT P6SM VCSH SCT025 BKN050 FM271300 11018G28KT P6SM -SHRA OVC040

Decode

Departure Runways

ID Width Length Bearing (true) Bearing (mag) Surface Threshold Offset Overrun Length
08 150 ft / 46 m 8,430 ft / 2,570 m 104.87° 85.85° Asphalt 0 ft / 0 m 450 ft / 137 m
26 150 ft / 46 m 8,430 ft / 2,570 m 284.90° 265.88° Asphalt 0 ft / 0 m 225 ft / 69 m

PASI

Details ICAO PASI (SIT)
Name SITKA ROCKY GUTIERREZ
Region USA (Alaska)
Timezone America/Juneau (UTC-8.0)
Stats Elevation 21 ft / 6 m (AMSL)
Location 57.047128° -135.361597°
Runways 1
Magnetic Variation 18.630° E

METAR

PASI 262153Z 13015KT 7SM -RA SCT030 OVC048 11/04 A2957

Decode

TAF

PASI 261730Z 2618/2718 12015G30KT 6SM -RA OVC050 WS020/14040KT FM262100 14015G30KT 5SM -RA BR BKN025 OVC040 WS020/16040KT FM270500 15015G30KT P6SM -SHRA SCT025 OVC040 FM271000 15015G30KT P6SM -SHRA BKN025 OVC040 WS020/18040KT

Decode

Destination Runways

ID Width Length Bearing (true) Bearing (mag) Surface Threshold Offset Overrun Length
11 150 ft / 46 m 6,485 ft / 1,977 m 135.57° 116.94° Asphalt 0 ft / 0 m 0 ft / 0 m
29 150 ft / 46 m 6,485 ft / 1,977 m 315.59° 296.96° Asphalt 0 ft / 0 m 0 ft / 0 m

Approach Navaids

Runway Type Ident Frequency Range Bearing (true) Bearing (mag) Slope Elevation
11 Localiser ISIT 108.90 MHz 18 nm / 33 km 143.51° 124.88° - 15 ft / 5 m (AMSL)
11 DME ISIT 108.90 MHz 18 nm / 33 km - - - 34 ft / 10 m (AMSL)

Popular Alternatives